createdAt,value
2023-04-26T00:01:44.081Z,77.52
2023-04-26T00:04:20.750Z,77.22
2023-04-26T00:06:54.338Z,76.21
2023-04-26T00:09:22.190Z,76.56
2023-04-26T00:12:16.688Z,76.61
2023-04-26T00:14:51.343Z,76.04
2023-04-26T00:17:19.095Z,77.19
2023-04-26T00:19:58.888Z,78.02
2023-04-26T00:22:34.772Z,77.01
2023-04-26T00:25:19.843Z,77.01
2023-04-26T00:27:53.552Z,76.85
2023-04-26T00:30:23.110Z,77.77
2023-04-26T00:32:53.053Z,77.08
2023-04-26T00:35:20.417Z,76.44
2023-04-26T00:37:49.474Z,76.99
2023-04-26T00:40:20.614Z,77.24
2023-04-26T00:42:49.975Z,77.47
2023-04-26T00:45:19.805Z,77.66
2023-04-26T00:47:47.651Z,78.38
2023-04-26T00:50:14.589Z,77.71
2023-04-26T00:52:45.729Z,77.60
2023-04-26T00:55:15.303Z,77.35
2023-04-26T00:57:42.237Z,77.39
2023-04-26T01:00:10.204Z,76.86
2023-04-26T01:02:37.779Z,77.44
2023-04-26T01:05:06.399Z,77.89
2023-04-26T01:07:36.893Z,78.21
2023-04-26T01:10:09.383Z,76.96
2023-04-26T01:12:40.757Z,77.66
2023-04-26T01:15:11.487Z,78.18
2023-04-26T01:17:40.712Z,77.80
2023-04-26T01:20:10.464Z,78.18
2023-04-26T01:22:39.987Z,78.41
2023-04-26T01:25:10.118Z,78.03
2023-04-26T01:27:36.979Z,78.37
2023-04-26T01:30:09.717Z,78.06
2023-04-26T01:32:36.784Z,78.80
2023-04-26T01:35:07.324Z,77.80
2023-04-26T01:37:34.325Z,77.54
2023-04-26T01:40:07.127Z,79.00
2023-04-26T01:42:34.065Z,79.63
2023-04-26T01:45:01.000Z,79.82
2023-04-26T01:47:27.916Z,78.81
2023-04-26T01:49:54.839Z,78.86
2023-04-26T01:52:22.988Z,78.39
2023-04-26T01:54:49.906Z,80.13
2023-04-26T01:57:16.906Z,79.73
2023-04-26T01:59:43.744Z,79.30
2023-04-26T02:02:10.684Z,79.46
2023-04-26T02:04:37.846Z,79.37
2023-04-26T02:07:09.538Z,80.47
2023-04-26T02:09:38.898Z,80.17
2023-04-26T02:12:08.518Z,81.48
2023-04-26T02:14:35.346Z,81.81
2023-04-26T02:17:06.346Z,81.10
2023-04-26T02:19:33.195Z,81.70
2023-04-26T02:22:00.076Z,81.73
2023-04-26T02:24:26.999Z,81.10
2023-04-26T02:26:54.474Z,81.53
2023-04-26T02:29:35.926Z,81.46
2023-04-26T02:32:09.342Z,81.35
2023-04-26T02:34:38.822Z,81.51
2023-04-26T02:37:05.707Z,81.27
2023-04-26T02:39:32.675Z,80.03
2023-04-26T02:41:59.613Z,79.88
2023-04-26T02:44:30.997Z,80.65
2023-04-26T02:46:58.358Z,79.23
2023-04-26T02:49:27.724Z,80.86
2023-04-26T02:51:54.611Z,81.53
2023-04-26T02:54:21.514Z,81.60
2023-04-26T02:56:55.456Z,81.72
2023-04-26T02:59:22.312Z,81.91
2023-04-26T03:01:51.488Z,82.62
2023-04-26T03:04:18.732Z,82.95
2023-04-26T03:06:45.740Z,82.85
2023-04-26T03:09:17.754Z,82.26
2023-04-26T03:11:44.835Z,81.56
2023-04-26T03:14:11.726Z,81.85
2023-04-26T03:16:43.243Z,81.88
2023-04-26T03:19:10.289Z,81.65
2023-04-26T03:21:37.522Z,81.38
2023-04-26T03:24:07.722Z,80.21
2023-04-26T03:26:37.220Z,81.04
2023-04-26T03:29:04.992Z,80.66
2023-04-26T03:31:34.987Z,81.10
2023-04-26T03:34:04.179Z,79.29
2023-04-26T03:36:36.191Z,79.85
2023-04-26T03:39:06.224Z,80.63
2023-04-26T03:41:33.609Z,80.33
2023-04-26T03:44:00.575Z,80.03
2023-04-26T03:46:27.607Z,80.94
2023-04-26T03:48:54.847Z,81.29
2023-04-26T03:51:22.124Z,80.99
2023-04-26T03:53:51.788Z,80.77
2023-04-26T03:56:21.753Z,81.03
2023-04-26T03:58:51.049Z,80.85
2023-04-26T04:01:18.801Z,80.23
2023-04-26T04:03:48.437Z,80.25
2023-04-26T04:06:16.784Z,80.68
2023-04-26T04:08:45.898Z,79.95
2023-04-26T04:11:16.677Z,82.13
2023-04-26T04:13:48.853Z,82.06
2023-04-26T04:16:17.895Z,81.52
2023-04-26T04:18:49.753Z,82.03
2023-04-26T04:21:16.807Z,81.46
2023-04-26T04:23:44.382Z,80.37
2023-04-26T04:26:12.687Z,80.35
2023-04-26T04:28:41.828Z,81.09
2023-04-26T04:31:13.102Z,80.42
2023-04-26T04:33:40.705Z,78.93
2023-04-26T04:36:08.359Z,80.72
2023-04-26T04:38:36.123Z,81.73
2023-04-26T04:41:05.382Z,81.08
2023-04-26T04:43:34.742Z,81.60
2023-04-26T04:46:06.402Z,80.91
2023-04-26T04:48:38.872Z,80.72
2023-04-26T04:51:08.278Z,80.34
2023-04-26T04:53:35.394Z,79.97
2023-04-26T04:56:02.683Z,79.77
2023-04-26T04:58:31.763Z,79.98
2023-04-26T05:01:01.094Z,79.24
2023-04-26T05:03:28.242Z,78.99
2023-04-26T05:05:55.211Z,79.71
2023-04-26T05:08:24.211Z,79.79
2023-04-26T05:10:51.580Z,80.01
2023-04-26T05:13:18.403Z,79.55
2023-04-26T05:15:45.246Z,79.08
2023-04-26T05:18:14.421Z,78.96
2023-04-26T05:20:41.563Z,78.98
2023-04-26T05:23:10.846Z,78.94
2023-04-26T05:25:40.460Z,77.66
2023-04-26T05:28:12.551Z,77.77
2023-04-26T05:30:39.664Z,77.08
2023-04-26T05:33:06.904Z,76.20
2023-04-26T05:35:36.416Z,76.86
2023-04-26T05:38:03.849Z,76.24
2023-04-26T05:40:32.892Z,75.07
2023-04-26T05:43:02.290Z,75.44
2023-04-26T05:45:29.304Z,74.10
2023-04-26T05:47:56.542Z,73.76
2023-04-26T05:50:25.655Z,73.10
2023-04-26T05:52:54.622Z,73.28
2023-04-26T05:55:21.473Z,72.68
2023-04-26T05:57:50.853Z,71.66
2023-04-26T06:00:20.286Z,71.75
2023-04-26T06:02:49.603Z,70.21
2023-04-26T06:05:17.089Z,69.42
2023-04-26T06:07:48.783Z,69.72
2023-04-26T06:10:15.774Z,69.86
2023-04-26T06:12:42.864Z,69.75
2023-04-26T06:15:10.962Z,70.10
2023-04-26T06:17:37.949Z,68.82
2023-04-26T06:20:05.799Z,66.33
2023-04-26T06:22:32.696Z,67.62
2023-04-26T06:24:59.686Z,66.66
2023-04-26T06:27:31.230Z,66.32
2023-04-26T06:29:58.231Z,66.55
2023-04-26T06:32:25.256Z,66.43
2023-04-26T06:34:56.652Z,66.36
2023-04-26T06:37:23.621Z,66.74
2023-04-26T06:39:50.473Z,65.72
2023-04-26T06:42:17.721Z,65.77
2023-04-26T06:44:44.663Z,64.96
2023-04-26T06:47:14.431Z,66.80
2023-04-26T06:49:41.358Z,67.10
2023-04-26T06:52:09.447Z,66.54
2023-04-26T06:54:46.047Z,65.74
2023-04-26T06:57:21.024Z,65.58
2023-04-26T06:59:47.922Z,64.99
2023-04-26T07:02:18.147Z,65.45
2023-04-26T07:04:45.670Z,65.19
2023-04-26T07:07:16.502Z,64.21
2023-04-26T07:09:44.577Z,63.64
2023-04-26T07:12:12.525Z,62.65
2023-04-26T07:14:43.357Z,60.75
2023-04-26T07:17:13.128Z,59.73
2023-04-26T07:19:42.467Z,58.24
2023-04-26T07:22:12.096Z,56.91
2023-04-26T07:24:38.963Z,57.46
2023-04-26T07:27:05.892Z,56.06
2023-04-26T07:29:37.587Z,56.80
2023-04-26T07:32:05.045Z,56.26
2023-04-26T07:34:32.255Z,56.49
2023-04-26T07:36:59.119Z,55.94
2023-04-26T07:39:28.656Z,55.03
2023-04-26T07:41:55.784Z,55.60
2023-04-26T07:44:22.688Z,55.72
2023-04-26T07:46:52.112Z,54.02
2023-04-26T07:49:19.243Z,54.08
2023-04-26T07:51:49.161Z,53.14
2023-04-26T07:54:16.163Z,51.37
2023-04-26T07:56:45.871Z,49.73
2023-04-26T07:59:15.548Z,50.73
2023-04-26T08:01:42.600Z,50.05
2023-04-26T08:04:09.767Z,49.96
2023-04-26T08:06:39.327Z,48.81
2023-04-26T08:09:06.232Z,47.98
2023-04-26T08:11:35.333Z,48.29
2023-04-26T08:14:04.417Z,47.84
2023-04-26T08:16:31.343Z,46.82
2023-04-26T08:19:02.645Z,45.26
2023-04-26T08:21:29.684Z,44.20
2023-04-26T08:23:56.509Z,43.74
2023-04-26T08:26:25.982Z,44.29
2023-04-26T08:28:52.820Z,43.02
2023-04-26T08:31:22.967Z,43.09
2023-04-26T08:33:50.101Z,43.29
2023-04-26T08:36:17.194Z,42.83
2023-04-26T08:38:46.579Z,42.69
2023-04-26T08:41:16.809Z,42.63
2023-04-26T08:43:44.064Z,41.90
2023-04-26T08:46:16.855Z,40.57
2023-04-26T08:48:43.812Z,41.02
2023-04-26T08:51:14.329Z,41.69
2023-04-26T08:53:41.962Z,41.11
2023-04-26T08:56:11.399Z,41.63
2023-04-26T08:58:41.282Z,41.44
2023-04-26T09:01:09.453Z,41.04
2023-04-26T09:03:39.020Z,39.35
2023-04-26T09:06:12.082Z,39.84
2023-04-26T09:08:44.120Z,40.49
2023-04-26T09:11:10.979Z,40.67
2023-04-26T09:13:40.986Z,39.21
2023-04-26T09:16:08.045Z,38.52
2023-04-26T09:18:35.042Z,38.45
2023-04-26T09:21:09.311Z,39.48
2023-04-26T09:23:36.669Z,40.79
2023-04-26T09:26:22.872Z,41.58
2023-04-26T09:28:50.545Z,41.68
2023-04-26T09:31:41.425Z,40.60
2023-04-26T09:34:12.438Z,40.42
2023-04-26T09:36:56.938Z,40.15
2023-04-26T09:39:37.491Z,39.71
2023-04-26T09:42:11.155Z,40.82
2023-04-26T09:44:40.727Z,42.10
2023-04-26T09:47:12.055Z,42.75
2023-04-26T09:49:51.502Z,43.59
2023-04-26T09:52:23.999Z,45.19
2023-04-26T09:54:53.891Z,45.93
2023-04-26T09:57:22.448Z,46.83
2023-04-26T09:59:56.276Z,47.35
2023-04-26T10:02:26.397Z,48.71
2023-04-26T10:04:56.750Z,48.57
2023-04-26T10:07:28.784Z,47.27
2023-04-26T10:09:58.594Z,46.04
2023-04-26T10:12:27.713Z,43.75
2023-04-26T10:14:57.333Z,44.37
2023-04-26T10:17:24.286Z,42.22
2023-04-26T10:19:58.710Z,41.95
2023-04-26T10:22:33.686Z,42.18
2023-04-26T10:25:01.126Z,40.11
2023-04-26T10:27:43.247Z,36.75
2023-04-26T10:30:19.765Z,36.96
2023-04-26T10:33:13.904Z,36.61
2023-04-26T10:36:11.395Z,36.90
2023-04-26T10:39:18.370Z,38.20
2023-04-26T10:41:45.403Z,36.13
2023-04-26T10:44:41.770Z,35.42
2023-04-26T10:47:31.756Z,36.12
2023-04-26T10:50:11.474Z,35.23
2023-04-26T10:53:02.464Z,34.27
2023-04-26T10:55:43.190Z,34.12
2023-04-26T10:58:34.174Z,35.61
2023-04-26T11:01:21.127Z,38.22
2023-04-26T11:04:00.123Z,40.57
2023-04-26T11:06:47.859Z,42.06
2023-04-26T11:09:50.529Z,42.69
2023-04-26T11:12:22.086Z,42.66
2023-04-26T11:14:51.199Z,42.88
2023-04-26T11:17:18.043Z,42.30
2023-04-26T11:19:47.961Z,42.53
2023-04-26T11:22:16.912Z,42.45
2023-04-26T11:24:46.421Z,41.62
2023-04-26T11:27:13.294Z,39.31
2023-04-26T11:29:43.276Z,37.95
2023-04-26T11:32:10.866Z,38.04
2023-04-26T11:34:44.285Z,39.65
2023-04-26T11:37:11.640Z,42.86
2023-04-26T11:39:38.532Z,45.17
2023-04-26T11:42:10.922Z,46.80
2023-04-26T11:44:40.453Z,47.98
2023-04-26T11:47:08.289Z,48.51
2023-04-26T11:49:39.511Z,48.00
2023-04-26T11:52:08.768Z,47.34
2023-04-26T11:54:37.871Z,47.89
2023-04-26T11:57:18.249Z,47.64
2023-04-26T11:59:47.781Z,48.28
2023-04-26T12:02:19.098Z,48.16
2023-04-26T12:04:48.855Z,49.07
2023-04-26T12:07:19.618Z,50.17
2023-04-26T12:09:46.653Z,50.26
2023-04-26T12:12:16.782Z,49.90
2023-04-26T12:14:45.458Z,48.33
2023-04-26T12:17:15.646Z,45.83
2023-04-26T12:19:49.998Z,42.91
2023-04-26T12:22:22.080Z,43.69
2023-04-26T12:24:51.128Z,43.76
2023-04-26T12:27:26.150Z,43.54
2023-04-26T12:29:52.991Z,44.03
2023-04-26T12:32:22.784Z,43.73
2023-04-26T12:34:49.791Z,40.71
2023-04-26T12:37:21.251Z,40.38
2023-04-26T12:39:52.727Z,40.38
2023-04-26T12:42:21.796Z,41.22
2023-04-26T12:44:51.233Z,42.01
2023-04-26T12:47:18.227Z,42.52
2023-04-26T12:49:48.504Z,42.13
2023-04-26T12:52:15.364Z,42.96
2023-04-26T12:54:44.900Z,43.38
2023-04-26T12:57:11.756Z,44.19
2023-04-26T12:59:41.262Z,44.46
2023-04-26T13:02:10.644Z,45.72
2023-04-26T13:04:41.042Z,48.69
2023-04-26T13:07:08.875Z,53.12
2023-04-26T13:09:38.271Z,54.79
2023-04-26T13:12:05.416Z,54.65
2023-04-26T13:14:34.824Z,54.66
2023-04-26T13:17:01.977Z,53.89
2023-04-26T13:19:29.011Z,54.83
2023-04-26T13:22:01.194Z,54.77
2023-04-26T13:24:28.087Z,54.33
2023-04-26T13:26:55.480Z,54.34
2023-04-26T13:29:22.498Z,53.47
2023-04-26T13:31:49.477Z,52.85
2023-04-26T13:34:16.467Z,52.25
2023-04-26T13:36:43.353Z,52.41
2023-04-26T13:39:12.485Z,51.35
2023-04-26T13:41:41.659Z,50.12
2023-04-26T13:44:08.561Z,48.68
2023-04-26T13:46:38.517Z,48.00
2023-04-26T13:49:08.292Z,48.66
2023-04-26T13:51:37.451Z,47.76
2023-04-26T13:54:07.290Z,47.99
2023-04-26T13:56:36.661Z,46.58
2023-04-26T13:59:07.651Z,45.29
2023-04-26T14:01:40.635Z,44.59
2023-04-26T14:04:11.331Z,43.71
2023-04-26T14:06:38.416Z,43.15
2023-04-26T14:09:08.744Z,44.95
2023-04-26T14:11:36.050Z,46.47
2023-04-26T14:14:02.927Z,47.42
2023-04-26T14:16:29.928Z,47.96
2023-04-26T14:19:01.311Z,47.53
2023-04-26T14:21:28.478Z,47.77
2023-04-26T14:23:56.454Z,47.17
2023-04-26T14:26:28.377Z,46.07
2023-04-26T14:28:57.839Z,46.15
2023-04-26T14:31:26.104Z,46.36
2023-04-26T14:33:56.500Z,46.24
2023-04-26T14:36:23.592Z,46.23
2023-04-26T14:38:50.859Z,46.10
2023-04-26T14:41:19.258Z,45.34
2023-04-26T14:43:50.417Z,45.99
2023-04-26T14:46:17.622Z,45.83
2023-04-26T14:48:47.597Z,46.24
2023-04-26T14:51:14.453Z,42.95
2023-04-26T14:53:41.329Z,42.26
2023-04-26T14:56:10.714Z,42.51
2023-04-26T14:58:37.620Z,42.53
2023-04-26T15:01:04.739Z,42.34
2023-04-26T15:03:32.663Z,42.42
2023-04-26T15:05:59.962Z,41.90
2023-04-26T15:08:27.524Z,41.85
2023-04-26T15:10:54.423Z,42.50
2023-04-26T15:13:21.336Z,41.23
2023-04-26T15:15:48.384Z,42.18
2023-04-26T15:18:15.300Z,43.00
2023-04-26T15:20:42.214Z,42.42
2023-04-26T15:23:09.165Z,42.79
2023-04-26T15:25:38.581Z,42.75
2023-04-26T15:28:05.755Z,42.40
2023-04-26T15:30:32.675Z,42.75
2023-04-26T15:33:00.327Z,43.47
2023-04-26T15:35:27.361Z,43.13
2023-04-26T15:37:56.827Z,43.24
2023-04-26T15:40:27.551Z,42.75
2023-04-26T15:42:56.957Z,44.06
2023-04-26T15:45:23.818Z,42.75
2023-04-26T15:47:55.223Z,42.41
2023-04-26T15:50:22.284Z,43.04
2023-04-26T15:52:49.289Z,42.21
2023-04-26T15:55:16.445Z,41.43
2023-04-26T15:57:46.493Z,42.20
2023-04-26T16:00:14.270Z,41.00
2023-04-26T16:02:44.858Z,41.14
2023-04-26T16:05:14.893Z,40.74
2023-04-26T16:07:41.949Z,41.12
2023-04-26T16:10:12.600Z,40.82
2023-04-26T16:12:43.394Z,41.23
2023-04-26T16:15:14.409Z,41.29
2023-04-26T16:17:41.540Z,42.23
2023-04-26T16:20:10.366Z,41.81
2023-04-26T16:22:39.507Z,41.54
2023-04-26T16:25:09.511Z,42.49
2023-04-26T16:27:36.520Z,42.22
2023-04-26T16:30:06.607Z,42.14
2023-04-26T16:32:34.050Z,42.66
2023-04-26T16:35:01.074Z,42.74
2023-04-26T16:37:28.418Z,41.83
2023-04-26T16:39:58.030Z,42.54
2023-04-26T16:42:24.922Z,43.21
2023-04-26T16:44:52.174Z,43.55
2023-04-26T16:47:21.934Z,43.35
2023-04-26T16:49:48.757Z,43.78
2023-04-26T16:52:16.253Z,43.54
2023-04-26T16:54:46.193Z,43.23
2023-04-26T16:57:13.997Z,43.76
2023-04-26T16:59:40.932Z,43.22
2023-04-26T17:02:07.790Z,43.19
2023-04-26T17:04:34.879Z,42.88
2023-04-26T17:07:07.428Z,43.55
2023-04-26T17:09:35.221Z,44.95
2023-04-26T17:12:07.180Z,45.38
2023-04-26T17:14:34.813Z,45.13
2023-04-26T17:17:02.266Z,45.93
2023-04-26T17:19:29.322Z,45.00
2023-04-26T17:21:56.220Z,45.79
2023-04-26T17:24:23.130Z,46.82
2023-04-26T17:26:50.046Z,46.40
2023-04-26T17:29:16.980Z,46.38
2023-04-26T17:31:44.484Z,46.82
2023-04-26T17:34:11.700Z,46.37
2023-04-26T17:36:40.961Z,46.67
2023-04-26T17:39:09.226Z,45.78
2023-04-26T17:41:38.493Z,46.04
2023-04-26T17:44:07.712Z,46.08
2023-04-26T17:46:34.611Z,46.09
2023-04-26T17:49:07.193Z,46.11
2023-04-26T17:51:34.179Z,46.20
2023-04-26T17:54:04.149Z,45.79
2023-04-26T17:56:31.011Z,46.14
2023-04-26T17:58:57.865Z,46.47
2023-04-26T18:01:24.876Z,46.75
2023-04-26T18:03:56.777Z,47.30
2023-04-26T18:06:26.891Z,47.72
2023-04-26T18:08:54.190Z,47.37
2023-04-26T18:11:22.074Z,47.17
2023-04-26T18:13:49.059Z,47.48
2023-04-26T18:16:18.615Z,46.94
2023-04-26T18:18:50.338Z,46.46
2023-04-26T18:21:17.258Z,46.72
2023-04-26T18:23:45.500Z,45.63
2023-04-26T18:26:12.750Z,45.84
2023-04-26T18:28:44.856Z,45.42
2023-04-26T18:31:14.413Z,45.07
2023-04-26T18:33:41.323Z,45.85
2023-04-26T18:36:10.721Z,45.17
2023-04-26T18:38:37.632Z,45.59
2023-04-26T18:41:07.546Z,46.63
2023-04-26T18:43:36.843Z,46.73
2023-04-26T18:46:03.760Z,46.54
2023-04-26T18:48:33.677Z,47.38
2023-04-26T18:51:01.045Z,47.90
2023-04-26T18:53:30.416Z,48.29
2023-04-26T18:55:59.855Z,48.76
2023-04-26T18:58:31.414Z,48.50
2023-04-26T19:00:58.311Z,48.97
2023-04-26T19:03:26.893Z,49.38
2023-04-26T19:05:54.137Z,48.85
2023-04-26T19:08:21.085Z,48.94
2023-04-26T19:10:47.949Z,48.63
2023-04-26T19:13:19.661Z,49.00
2023-04-26T19:15:49.092Z,48.39
2023-04-26T19:18:17.933Z,49.18
2023-04-26T19:20:45.019Z,48.82
2023-04-26T19:23:12.601Z,48.68
2023-04-26T19:25:44.970Z,48.96
2023-04-26T19:28:11.933Z,49.83
2023-04-26T19:30:41.259Z,49.77
2023-04-26T19:33:08.112Z,50.16
2023-04-26T19:35:34.996Z,50.09
2023-04-26T19:38:06.676Z,50.27
2023-04-26T19:40:33.618Z,50.80
2023-04-26T19:43:00.562Z,50.55
2023-04-26T19:45:29.049Z,50.68
2023-04-26T19:47:58.228Z,50.89
2023-04-26T19:50:25.196Z,51.39
2023-04-26T19:52:52.165Z,51.77
2023-04-26T19:55:22.345Z,52.01
2023-04-26T19:57:49.243Z,51.59
2023-04-26T20:00:18.648Z,52.91
2023-04-26T20:02:45.678Z,52.91
2023-04-26T20:05:15.231Z,52.27
2023-04-26T20:07:46.766Z,52.45
2023-04-26T20:10:15.922Z,52.84
2023-04-26T20:12:42.867Z,52.02
2023-04-26T20:15:12.073Z,52.68
2023-04-26T20:17:42.767Z,52.16
2023-04-26T20:20:12.924Z,52.04
2023-04-26T20:22:40.678Z,52.04
2023-04-26T20:25:10.668Z,52.41
2023-04-26T20:27:39.853Z,51.93
2023-04-26T20:30:10.870Z,53.04
2023-04-26T20:32:37.816Z,53.33
2023-04-26T20:35:08.522Z,53.54
2023-04-26T20:37:37.599Z,54.12
2023-04-26T20:40:08.052Z,53.63
2023-04-26T20:42:38.050Z,52.89
2023-04-26T20:45:05.588Z,54.47
2023-04-26T20:47:32.751Z,54.07
2023-04-26T20:49:59.816Z,53.23
2023-04-26T20:52:27.143Z,53.54
2023-04-26T20:55:07.268Z,53.95
2023-04-26T20:57:34.148Z,53.97
2023-04-26T21:00:01.094Z,54.91
2023-04-26T21:02:28.251Z,55.63
2023-04-26T21:04:55.346Z,54.43
2023-04-26T21:07:24.637Z,54.88
2023-04-26T21:09:53.734Z,54.96
2023-04-26T21:12:20.671Z,54.88
2023-04-26T21:14:47.929Z,55.20
2023-04-26T21:17:15.572Z,56.36
2023-04-26T21:19:47.430Z,57.04
2023-04-26T21:22:16.580Z,57.32
2023-04-26T21:24:43.475Z,57.00
2023-04-26T21:27:12.803Z,56.13
2023-04-26T21:29:39.696Z,56.36
2023-04-26T21:32:06.642Z,57.64
2023-04-26T21:34:33.480Z,57.16
2023-04-26T21:37:05.405Z,56.94
2023-04-26T21:39:32.382Z,58.11
2023-04-26T21:41:59.476Z,58.01
2023-04-26T21:44:26.369Z,58.31
2023-04-26T21:46:53.367Z,58.09
2023-04-26T21:49:20.338Z,58.30
2023-04-26T21:51:47.190Z,58.07
2023-04-26T21:54:16.845Z,58.96
2023-04-26T21:56:43.802Z,59.36
2023-04-26T21:59:17.587Z,59.42
2023-04-26T22:01:44.542Z,59.28
2023-04-26T22:04:11.557Z,59.51
2023-04-26T22:06:38.588Z,59.52
2023-04-26T22:09:09.283Z,60.43
2023-04-26T22:11:38.967Z,59.91
2023-04-26T22:14:08.141Z,59.96
2023-04-26T22:16:35.153Z,60.53
2023-04-26T22:19:01.986Z,60.55
2023-04-26T22:21:29.412Z,60.78
2023-04-26T22:23:56.316Z,61.62
2023-04-26T22:26:26.169Z,61.41
2023-04-26T22:28:53.037Z,62.77
2023-04-26T22:31:20.109Z,61.78
2023-04-26T22:33:49.187Z,61.81
2023-04-26T22:36:16.097Z,62.69
2023-04-26T22:38:42.934Z,62.01
2023-04-26T22:41:09.788Z,63.39
2023-04-26T22:43:36.866Z,63.14
2023-04-26T22:46:06.429Z,63.11
2023-04-26T22:48:35.995Z,63.00
2023-04-26T22:51:05.935Z,63.13
2023-04-26T22:53:32.762Z,64.04
2023-04-26T22:56:01.913Z,63.17
2023-04-26T22:58:29.160Z,63.76
2023-04-26T23:00:58.999Z,64.00
2023-04-26T23:03:28.597Z,64.05
2023-04-26T23:05:58.841Z,64.95
2023-04-26T23:08:25.827Z,63.95
2023-04-26T23:10:52.695Z,64.24
2023-04-26T23:13:19.658Z,64.73
2023-04-26T23:15:49.044Z,64.89
2023-04-26T23:18:18.387Z,64.96
2023-04-26T23:20:47.853Z,64.54
2023-04-26T23:23:14.711Z,65.45
2023-04-26T23:25:42.339Z,64.86
2023-04-26T23:28:11.402Z,65.34
2023-04-26T23:30:38.284Z,64.91
2023-04-26T23:33:05.351Z,65.56
2023-04-26T23:35:35.386Z,66.02
2023-04-26T23:38:04.422Z,65.37
2023-04-26T23:40:37.141Z,65.80
2023-04-26T23:43:06.061Z,65.76
2023-04-26T23:45:37.617Z,66.40
2023-04-26T23:48:06.912Z,67.22
2023-04-26T23:50:35.866Z,66.26
2023-04-26T23:53:02.734Z,66.09
2023-04-26T23:55:29.575Z,66.72
2023-04-26T23:57:58.534Z,66.52
